< < Back
Terminal Aerodrome Forecast


Current Version              Previous Versions:   1  2  3  4  5  6  7  8  9  

Terminal Aerodrome Forecast

468
FTUS42 KILM 132329
TAFFLO
TAF
KFLO 132329Z 1400/1424 35008KT P6SM SKC
     FM140200 02008KT P6SM SKC
     FM141500 05008KT P6SM BKN120
     FM142000 09010KT P6SM SCT050 BKN100=

Latest METAR

635
SAUS70 KWBC 132300 RRA
MTRFLO
METAR KFLO 132253Z 36008KT 10SM CLR 04/M12 A3031 RMK AO2 SLP265
T00391117


USA.gov is the U.S. government's official web portal to all federal, state and local government web resources and services.